createdAt,value
2018-05-24T00:00:19.096Z,3.07
2018-05-24T00:02:46.533Z,3.00
2018-05-24T00:05:14.002Z,2.83
2018-05-24T00:07:41.455Z,3.07
2018-05-24T00:10:09.104Z,3.03
2018-05-24T00:12:36.575Z,3.07
2018-05-24T00:15:04.020Z,3.27
2018-05-24T00:17:31.546Z,3.20
2018-05-24T00:19:59.206Z,3.10
2018-05-24T00:22:26.802Z,2.90
2018-05-24T00:24:54.459Z,2.90
2018-05-24T00:27:22.090Z,2.87
2018-05-24T00:29:49.543Z,3.43
2018-05-24T00:32:16.986Z,3.23
2018-05-24T00:34:44.472Z,3.27
2018-05-24T00:37:12.031Z,3.33
2018-05-24T00:39:39.546Z,3.53
2018-05-24T00:42:07.887Z,3.00
2018-05-24T00:44:35.324Z,3.17
2018-05-24T00:47:02.781Z,3.53
2018-05-24T00:49:30.331Z,3.00
2018-05-24T00:51:57.797Z,3.53
2018-05-24T00:54:25.238Z,3.67
2018-05-24T00:56:52.707Z,3.00
2018-05-24T00:59:20.492Z,3.23
2018-05-24T01:01:48.017Z,3.67
2018-05-24T01:04:15.465Z,3.20
2018-05-24T01:06:42.904Z,3.37
2018-05-24T01:09:10.508Z,3.50
2018-05-24T01:11:38.168Z,3.30
2018-05-24T01:14:05.714Z,3.20
2018-05-24T01:16:33.153Z,3.13
2018-05-24T01:19:00.818Z,3.07
2018-05-24T01:21:28.417Z,3.20
2018-05-24T01:23:55.879Z,3.33
2018-05-24T01:26:23.509Z,3.27
2018-05-24T01:28:50.976Z,3.03
2018-05-24T01:31:18.460Z,3.23
2018-05-24T01:33:46.716Z,3.10
2018-05-24T01:36:14.374Z,2.90
2018-05-24T01:38:42.036Z,3.33
2018-05-24T01:41:09.550Z,2.80
2018-05-24T01:43:36.991Z,3.40
2018-05-24T01:46:04.615Z,3.30
2018-05-24T01:48:32.065Z,3.30
2018-05-24T01:50:59.608Z,3.20
2018-05-24T01:53:27.184Z,3.20
2018-05-24T01:55:54.639Z,3.40
2018-05-24T01:58:22.158Z,3.27
2018-05-24T02:00:49.614Z,3.50
2018-05-24T02:03:17.104Z,3.23
2018-05-24T02:05:44.685Z,3.00
2018-05-24T02:08:12.321Z,3.30
2018-05-24T02:10:39.794Z,3.20
2018-05-24T02:13:07.452Z,3.23
2018-05-24T02:15:34.983Z,2.80
2018-05-24T02:18:02.766Z,3.27
2018-05-24T02:20:30.211Z,3.30
2018-05-24T02:22:57.670Z,3.20
2018-05-24T02:25:25.130Z,2.97
2018-05-24T02:27:52.564Z,3.17
2018-05-24T02:30:20.275Z,3.43
2018-05-24T02:32:47.773Z,3.40
2018-05-24T02:35:15.357Z,3.03
2018-05-24T02:37:42.890Z,3.13
2018-05-24T02:40:10.670Z,3.40
2018-05-24T02:42:38.123Z,3.27
2018-05-24T02:45:05.604Z,3.17
2018-05-24T02:47:33.258Z,2.93
2018-05-24T02:50:00.927Z,3.20
2018-05-24T02:52:28.588Z,3.20
2018-05-24T02:54:56.043Z,3.03
2018-05-24T02:57:23.591Z,2.73
2018-05-24T02:59:51.156Z,3.00
2018-05-24T03:02:18.619Z,3.37
2018-05-24T03:04:46.150Z,3.07
2018-05-24T03:07:13.689Z,3.13
2018-05-24T03:09:41.126Z,2.80
2018-05-24T03:12:09.449Z,3.13
2018-05-24T03:14:37.131Z,2.87
2018-05-24T03:17:04.645Z,2.70
2018-05-24T03:19:32.246Z,2.70
2018-05-24T03:21:59.897Z,2.80
2018-05-24T03:24:27.371Z,3.10
2018-05-24T03:26:56.395Z,3.13
2018-05-24T03:29:23.849Z,3.03
2018-05-24T03:31:52.073Z,3.13
2018-05-24T03:34:19.517Z,3.00
2018-05-24T03:36:46.957Z,3.27
2018-05-24T03:39:14.642Z,3.30
2018-05-24T03:41:42.081Z,3.20
2018-05-24T03:44:09.535Z,3.20
2018-05-24T03:46:37.002Z,3.03
2018-05-24T03:49:04.503Z,3.37
2018-05-24T03:51:32.856Z,3.10
2018-05-24T03:54:00.531Z,3.20
2018-05-24T03:56:27.975Z,3.33
2018-05-24T04:02:07.683Z,2.93
2018-05-24T04:04:47.094Z,3.63
2018-05-24T04:07:14.607Z,2.80
2018-05-24T04:09:42.380Z,2.63
2018-05-24T04:12:10.055Z,3.00
2018-05-24T04:14:37.581Z,3.40
2018-05-24T04:17:05.045Z,3.30
2018-05-24T04:19:32.695Z,3.13
2018-05-24T04:22:00.287Z,2.97
2018-05-24T04:24:27.739Z,3.03
2018-05-24T04:26:55.396Z,3.20
2018-05-24T04:29:22.936Z,2.87
2018-05-24T04:31:50.543Z,3.67
2018-05-24T04:34:18.172Z,2.77
2018-05-24T04:36:45.619Z,2.83
2018-05-24T04:39:13.088Z,2.83
2018-05-24T04:41:40.626Z,3.00
2018-05-24T04:44:08.206Z,2.93
2018-05-24T04:46:35.875Z,3.20
2018-05-24T04:49:03.516Z,2.80
2018-05-24T04:51:31.179Z,2.80
2018-05-24T04:53:58.718Z,2.77
2018-05-24T04:56:26.296Z,3.03
2018-05-24T04:58:53.867Z,2.63
2018-05-24T05:01:21.868Z,2.57
2018-05-24T05:03:49.503Z,2.70
2018-05-24T05:06:16.949Z,2.70
2018-05-24T05:08:44.488Z,2.67
2018-05-24T05:11:11.948Z,2.90
2018-05-24T05:13:39.392Z,3.03
2018-05-24T05:16:06.980Z,2.90
2018-05-24T05:18:34.504Z,3.10
2018-05-24T05:21:01.941Z,2.70
2018-05-24T05:23:29.400Z,2.77
2018-05-24T05:25:56.843Z,2.77
2018-05-24T05:28:24.453Z,2.80
2018-05-24T05:30:51.929Z,2.60
2018-05-24T05:33:19.585Z,3.00
2018-05-24T05:35:47.131Z,2.77
2018-05-24T05:38:14.776Z,2.60
2018-05-24T05:40:42.273Z,2.60
2018-05-24T05:43:09.835Z,2.80
2018-05-24T05:45:37.345Z,2.83
2018-05-24T05:48:04.795Z,2.63
2018-05-24T05:50:32.269Z,2.90
2018-05-24T05:52:59.710Z,2.73
2018-05-24T05:55:27.178Z,2.70
2018-05-24T05:57:54.749Z,2.63
2018-05-24T06:00:22.202Z,2.87
2018-05-24T06:02:49.862Z,3.00
2018-05-24T06:05:17.352Z,2.87
2018-05-24T06:07:44.799Z,2.73
2018-05-24T06:10:13.143Z,2.87
2018-05-24T06:12:40.602Z,2.53
2018-05-24T06:15:08.058Z,3.03
2018-05-24T06:17:35.498Z,2.70
2018-05-24T06:20:03.048Z,2.70
2018-05-24T06:22:30.767Z,2.80
2018-05-24T06:24:58.310Z,2.70
2018-05-24T06:27:25.745Z,2.90
2018-05-24T06:29:53.267Z,3.10
2018-05-24T06:32:21.596Z,2.73
2018-05-24T06:34:49.060Z,2.67
2018-05-24T06:37:16.543Z,2.73
2018-05-24T06:39:44.160Z,2.60
2018-05-24T06:42:11.613Z,3.10
2018-05-24T06:44:39.158Z,2.87
2018-05-24T06:47:06.751Z,2.43
2018-05-24T06:49:34.405Z,3.10
2018-05-24T06:52:01.850Z,3.03
2018-05-24T06:54:29.512Z,2.67
2018-05-24T06:56:57.063Z,2.73
2018-05-24T06:59:24.833Z,3.07
2018-05-24T07:01:52.298Z,2.90
2018-05-24T07:04:19.957Z,2.70
2018-05-24T07:06:47.492Z,3.50
2018-05-24T07:09:15.287Z,3.70
2018-05-24T07:11:42.931Z,2.93
2018-05-24T07:14:10.415Z,3.10
2018-05-24T07:16:38.158Z,2.90
2018-05-24T07:19:05.937Z,3.13
2018-05-24T07:21:35.048Z,2.87
2018-05-24T07:24:02.503Z,3.00
2018-05-24T07:26:30.774Z,2.83
2018-05-24T07:28:58.243Z,3.23
2018-05-24T07:31:25.735Z,3.40
2018-05-24T07:33:53.198Z,3.00
2018-05-24T07:36:20.653Z,3.53
2018-05-24T07:38:48.304Z,3.20
2018-05-24T07:41:15.773Z,2.83
2018-05-24T07:43:43.223Z,3.20
2018-05-24T07:46:10.805Z,3.20
2018-05-24T07:48:38.457Z,2.90
2018-05-24T07:51:05.930Z,3.47
2018-05-24T07:53:33.694Z,3.03
2018-05-24T07:56:01.139Z,3.23
2018-05-24T07:58:28.912Z,3.73
2018-05-24T08:00:56.558Z,3.57
2018-05-24T08:03:24.239Z,3.17
2018-05-24T08:05:51.896Z,3.80
2018-05-24T08:08:19.427Z,3.50
2018-05-24T08:10:46.882Z,3.90
2018-05-24T08:13:14.466Z,4.00
2018-05-24T08:15:42.129Z,3.43
2018-05-24T08:18:09.651Z,3.50
2018-05-24T08:20:37.139Z,3.63
2018-05-24T08:23:04.580Z,3.80
2018-05-24T08:25:32.029Z,3.53
2018-05-24T08:27:59.472Z,3.80
2018-05-24T08:30:27.058Z,3.97
2018-05-24T08:32:54.514Z,3.50
2018-05-24T08:35:21.957Z,3.33
2018-05-24T08:37:49.411Z,4.27
2018-05-24T08:40:16.856Z,3.47
2018-05-24T08:42:44.292Z,4.00
2018-05-24T08:45:11.997Z,4.00
2018-05-24T08:47:39.437Z,3.93
2018-05-24T08:50:07.139Z,4.25
2018-05-24T08:52:34.644Z,3.70
2018-05-24T08:55:02.265Z,3.83
2018-05-24T08:57:29.902Z,4.47
2018-05-24T08:59:57.353Z,4.47
2018-05-24T09:02:25.084Z,3.83
2018-05-24T09:04:52.551Z,4.13
2018-05-24T09:07:20.007Z,3.73
2018-05-24T09:09:47.532Z,4.20
2018-05-24T09:12:15.870Z,4.37
2018-05-24T09:14:43.527Z,4.20
2018-05-24T09:17:12.495Z,4.20
2018-05-24T09:19:40.064Z,4.43
2018-05-24T09:22:07.496Z,4.40
2018-05-24T09:24:34.992Z,4.40
2018-05-24T09:27:02.447Z,4.60
2018-05-24T09:29:30.197Z,4.83
2018-05-24T09:31:57.761Z,4.40
2018-05-24T09:34:25.221Z,4.50
2018-05-24T09:36:52.668Z,5.27
2018-05-24T09:39:20.342Z,5.03
2018-05-24T09:41:47.868Z,5.40
2018-05-24T09:44:15.330Z,5.20
2018-05-24T09:46:42.893Z,5.47
2018-05-24T09:49:10.344Z,5.13
2018-05-24T09:51:38.033Z,5.50
2018-05-24T09:54:05.488Z,5.40
2018-05-24T09:56:33.138Z,5.20
2018-05-24T09:59:00.669Z,5.17
2018-05-24T10:01:28.126Z,5.67
2018-05-24T10:03:55.564Z,5.40
2018-05-24T10:06:23.167Z,5.43
2018-05-24T10:08:50.816Z,5.20
2018-05-24T10:11:18.485Z,4.90
2018-05-24T10:13:46.137Z,5.50
2018-05-24T10:16:13.789Z,5.87
2018-05-24T10:18:41.253Z,5.37
2018-05-24T10:21:08.711Z,5.30
2018-05-24T10:23:36.276Z,5.83
2018-05-24T10:26:03.640Z,5.40
2018-05-24T10:28:31.299Z,4.87
2018-05-24T10:30:58.736Z,5.17
2018-05-24T10:33:26.234Z,5.90
2018-05-24T10:35:53.679Z,6.27
2018-05-24T10:38:21.188Z,5.60
2018-05-24T10:40:48.807Z,5.70
2018-05-24T10:43:16.299Z,5.60
2018-05-24T10:45:43.755Z,6.27
2018-05-24T10:48:11.353Z,5.80
2018-05-24T10:50:39.017Z,6.37
2018-05-24T10:53:06.639Z,5.90
2018-05-24T10:55:34.319Z,5.47
2018-05-24T10:58:01.823Z,5.77
2018-05-24T11:00:29.337Z,5.47
2018-05-24T11:02:57.026Z,6.03
2018-05-24T11:05:24.439Z,5.50
2018-05-24T11:07:52.045Z,6.60
2018-05-24T11:10:19.549Z,5.73
2018-05-24T11:12:47.136Z,5.67
2018-05-24T11:15:14.587Z,6.50
2018-05-24T11:17:42.248Z,6.70
2018-05-24T11:20:11.249Z,7.13
2018-05-24T11:22:39.087Z,6.60
2018-05-24T11:25:08.874Z,6.80
2018-05-24T11:27:36.258Z,6.23
2018-05-24T11:30:03.839Z,5.63
2018-05-24T11:32:31.504Z,7.37
2018-05-24T11:34:59.023Z,7.10
2018-05-24T11:37:27.427Z,6.77
2018-05-24T11:39:54.963Z,6.57
2018-05-24T11:42:22.435Z,6.67
2018-05-24T11:44:49.897Z,6.50
2018-05-24T11:47:17.356Z,6.03
2018-05-24T11:49:45.117Z,6.30
2018-05-24T11:52:12.663Z,6.10
2018-05-24T11:54:40.243Z,5.33
2018-05-24T11:57:07.766Z,5.90
2018-05-24T11:59:35.359Z,6.83
2018-05-24T12:02:02.830Z,6.13
2018-05-24T12:04:30.344Z,6.30
2018-05-24T12:06:57.823Z,6.40
2018-05-24T12:09:25.368Z,6.53
2018-05-24T12:11:52.863Z,6.47
2018-05-24T12:14:21.100Z,6.17
2018-05-24T12:16:48.759Z,6.10
2018-05-24T12:19:16.239Z,5.53
2018-05-24T12:21:44.502Z,6.00
2018-05-24T12:24:12.034Z,5.73
2018-05-24T12:26:39.627Z,5.87
2018-05-24T12:29:08.705Z,6.07
2018-05-24T12:31:36.982Z,6.10
2018-05-24T12:34:04.446Z,5.57
2018-05-24T12:36:31.983Z,5.90
2018-05-24T12:38:59.553Z,6.10
2018-05-24T12:41:27.040Z,6.20
2018-05-24T12:43:54.553Z,6.00
2018-05-24T12:46:22.035Z,5.40
2018-05-24T12:48:49.666Z,5.70
2018-05-24T12:51:17.254Z,4.87
2018-05-24T12:53:44.702Z,5.60
2018-05-24T12:56:12.430Z,5.47
2018-05-24T12:58:39.899Z,5.73
2018-05-24T13:01:07.480Z,4.93
2018-05-24T13:03:34.932Z,5.37
2018-05-24T13:06:02.589Z,5.07
2018-05-24T13:08:30.034Z,5.80
2018-05-24T13:10:57.717Z,5.80
2018-05-24T13:13:25.386Z,5.50
2018-05-24T13:15:53.176Z,5.33
2018-05-24T13:18:20.755Z,5.27
2018-05-24T13:20:48.450Z,6.00
2018-05-24T13:23:16.098Z,5.17
2018-05-24T13:25:43.553Z,5.30
2018-05-24T13:28:11.002Z,6.10
2018-05-24T13:30:38.457Z,5.53
2018-05-24T13:33:05.960Z,5.43
2018-05-24T13:35:33.498Z,5.13
2018-05-24T13:38:01.034Z,5.47
2018-05-24T13:40:28.647Z,4.17
2018-05-24T13:42:56.088Z,5.13
2018-05-24T13:45:24.868Z,5.13
2018-05-24T13:47:53.278Z,4.97
2018-05-24T13:50:20.793Z,5.00
2018-05-24T13:52:48.358Z,4.90
2018-05-24T13:55:15.861Z,5.20
2018-05-24T13:57:46.220Z,5.80
2018-05-24T14:00:14.010Z,5.07
2018-05-24T14:02:41.515Z,5.07
2018-05-24T14:05:09.041Z,5.67
2018-05-24T14:07:36.526Z,5.23
2018-05-24T14:10:04.036Z,4.80
2018-05-24T14:12:31.691Z,4.40
2018-05-24T14:14:59.131Z,4.20
2018-05-24T14:17:26.834Z,4.37
2018-05-24T14:19:54.479Z,3.80
2018-05-24T14:22:21.913Z,4.23
2018-05-24T14:24:49.557Z,3.07
2018-05-24T14:27:17.057Z,3.50
2018-05-24T14:29:44.508Z,3.80
2018-05-24T14:32:11.980Z,3.50
2018-05-24T14:34:39.435Z,3.70
2018-05-24T14:37:07.055Z,3.67
2018-05-24T14:39:34.712Z,3.80
2018-05-24T14:42:02.183Z,3.90
2018-05-24T14:44:30.118Z,3.80
2018-05-24T14:46:57.632Z,4.70
2018-05-24T14:49:25.113Z,4.27
2018-05-24T14:51:52.658Z,3.70
2018-05-24T14:54:20.184Z,3.73
2018-05-24T14:56:48.492Z,4.10
2018-05-24T14:59:16.204Z,4.63
2018-05-24T15:01:43.811Z,4.60
2018-05-24T15:04:11.342Z,4.03
2018-05-24T15:06:38.903Z,4.70
2018-05-24T15:09:06.547Z,4.27
2018-05-24T15:11:34.148Z,5.10
2018-05-24T15:14:01.690Z,4.70
2018-05-24T15:16:29.138Z,4.67
2018-05-24T15:18:56.707Z,4.53
2018-05-24T15:21:25.070Z,4.67
2018-05-24T15:23:52.570Z,4.60
2018-05-24T15:26:20.141Z,4.67
2018-05-24T15:28:48.027Z,4.63
2018-05-24T15:31:15.682Z,4.60
2018-05-24T15:33:44.356Z,4.17
2018-05-24T15:36:11.820Z,4.40
2018-05-24T15:38:39.370Z,4.83
2018-05-24T15:41:06.921Z,4.20
2018-05-24T15:43:34.537Z,4.07
2018-05-24T15:46:01.960Z,4.37
2018-05-24T15:48:31.587Z,4.60
2018-05-24T15:50:59.128Z,5.13
2018-05-24T15:53:26.785Z,4.90
2018-05-24T15:55:54.259Z,5.30
2018-05-24T15:58:21.920Z,5.90
2018-05-24T16:00:49.610Z,5.73
2018-05-24T16:03:17.232Z,6.00
2018-05-24T16:05:44.718Z,6.10
2018-05-24T16:08:12.356Z,5.43
2018-05-24T16:10:39.873Z,6.83
2018-05-24T16:13:07.336Z,6.90
2018-05-24T16:15:34.913Z,7.10
2018-05-24T16:18:02.656Z,6.37
2018-05-24T16:20:30.248Z,6.63
2018-05-24T16:22:57.755Z,7.20
2018-05-24T16:25:25.436Z,6.93
2018-05-24T16:27:52.883Z,6.40
2018-05-24T16:30:20.890Z,7.03
2018-05-24T16:32:49.203Z,6.43
2018-05-24T16:35:17.029Z,6.30
2018-05-24T16:37:44.697Z,6.57
2018-05-24T16:40:12.230Z,7.00
2018-05-24T16:42:39.807Z,6.87
2018-05-24T16:45:08.330Z,6.72
2018-05-24T16:47:35.932Z,6.30
2018-05-24T16:50:03.418Z,6.63
2018-05-24T16:52:31.872Z,6.37
2018-05-24T16:54:59.329Z,5.93
2018-05-24T16:57:26.879Z,6.10
2018-05-24T16:59:54.411Z,5.83
2018-05-24T17:02:21.865Z,5.70
2018-05-24T17:04:49.386Z,5.80
2018-05-24T17:07:16.832Z,5.73
2018-05-24T17:09:44.330Z,6.63
2018-05-24T17:12:11.795Z,5.73
2018-05-24T17:14:39.265Z,6.57
2018-05-24T17:17:06.871Z,6.50
2018-05-24T17:19:34.546Z,6.30
2018-05-24T17:22:02.111Z,6.47
2018-05-24T17:24:30.506Z,6.87
2018-05-24T17:26:58.111Z,7.00
2018-05-24T17:29:25.575Z,6.83
2018-05-24T17:31:53.121Z,6.70
2018-05-24T17:34:20.684Z,7.10
2018-05-24T17:36:48.421Z,6.37
2018-05-24T17:39:16.006Z,6.77
2018-05-24T17:41:43.539Z,6.17
2018-05-24T17:44:11.019Z,6.57
2018-05-24T17:46:38.599Z,7.63
2018-05-24T17:49:06.097Z,6.33
2018-05-24T17:51:34.456Z,6.77
2018-05-24T17:54:02.788Z,6.87
2018-05-24T17:56:30.250Z,7.03
2018-05-24T17:58:57.690Z,6.93
2018-05-24T18:01:25.223Z,6.53
2018-05-24T18:03:52.684Z,6.60
2018-05-24T18:06:20.150Z,7.18
2018-05-24T18:08:47.930Z,6.77
2018-05-24T18:11:15.503Z,7.80
2018-05-24T18:13:42.944Z,6.60
2018-05-24T18:16:10.488Z,6.90
2018-05-24T18:18:38.030Z,6.90
2018-05-24T18:21:05.534Z,7.27
2018-05-24T18:23:32.981Z,6.77
2018-05-24T18:26:01.343Z,6.83
2018-05-24T18:28:28.828Z,7.03
2018-05-24T18:30:56.419Z,6.90
2018-05-24T18:33:24.685Z,7.60
2018-05-24T18:35:52.205Z,7.83
2018-05-24T18:38:19.836Z,8.43
2018-05-24T18:40:47.325Z,8.17
2018-05-24T18:43:14.977Z,7.80
2018-05-24T18:45:42.564Z,8.20
2018-05-24T18:48:10.684Z,8.23
2018-05-24T18:50:38.173Z,8.20
2018-05-24T18:53:05.734Z,7.97
2018-05-24T18:55:34.093Z,8.67
2018-05-24T18:58:01.645Z,7.53
2018-05-24T19:00:29.142Z,7.50
2018-05-24T19:02:57.497Z,7.63
2018-05-24T19:05:25.426Z,8.00
2018-05-24T19:07:52.900Z,7.97
2018-05-24T19:10:21.145Z,8.33
2018-05-24T19:12:48.599Z,7.57
2018-05-24T19:15:16.104Z,8.30
2018-05-24T19:17:43.536Z,8.47
2018-05-24T19:20:11.186Z,8.60
2018-05-24T19:22:38.802Z,8.50
2018-05-24T19:25:07.259Z,9.17
2018-05-24T19:27:34.905Z,8.40
2018-05-24T19:30:02.360Z,7.80
2018-05-24T19:32:29.922Z,9.10
2018-05-24T19:34:57.411Z,8.47
2018-05-24T19:37:25.979Z,8.30
2018-05-24T19:39:55.011Z,8.93
2018-05-24T19:42:23.358Z,8.50
2018-05-24T19:44:50.867Z,8.40
2018-05-24T19:47:18.453Z,8.67
2018-05-24T19:49:46.146Z,8.60
2018-05-24T19:52:13.654Z,8.10
2018-05-24T19:54:41.112Z,8.47
2018-05-24T19:57:08.676Z,8.33
2018-05-24T19:59:36.140Z,8.60
2018-05-24T20:02:03.796Z,8.20
2018-05-24T20:04:31.457Z,9.00
2018-05-24T20:06:58.955Z,8.63
2018-05-24T20:09:26.463Z,8.43
2018-05-24T20:11:54.037Z,9.00
2018-05-24T20:14:21.566Z,8.50
2018-05-24T20:16:49.157Z,8.27
2018-05-24T20:19:16.812Z,8.40
2018-05-24T20:21:44.351Z,8.40
2018-05-24T20:24:11.809Z,8.70
2018-05-24T20:26:39.258Z,8.20
2018-05-24T20:29:06.963Z,8.67
2018-05-24T20:31:34.433Z,9.10
2018-05-24T20:34:01.956Z,9.00
2018-05-24T20:36:29.544Z,9.20
2018-05-24T20:38:57.298Z,8.67
2018-05-24T20:41:24.924Z,8.87
2018-05-24T20:43:52.392Z,9.07
2018-05-24T20:46:19.852Z,8.67
2018-05-24T20:48:47.313Z,9.00
2018-05-24T20:51:14.967Z,9.07
2018-05-24T20:53:42.501Z,9.33
2018-05-24T20:56:10.020Z,9.43
2018-05-24T20:58:38.304Z,9.20
2018-05-24T21:01:06.516Z,9.40
2018-05-24T21:03:34.085Z,9.90
2018-05-24T21:06:01.625Z,10.13
2018-05-24T21:08:29.433Z,10.20
2018-05-24T21:10:56.908Z,9.50
2018-05-24T21:13:24.554Z,9.93
2018-05-24T21:15:52.032Z,9.73
2018-05-24T21:18:19.495Z,9.97
2018-05-24T21:20:46.966Z,9.97
2018-05-24T21:23:14.552Z,10.33
2018-05-24T21:25:41.996Z,11.17
2018-05-24T21:28:09.689Z,10.87
2018-05-24T21:30:37.350Z,10.83
2018-05-24T21:33:04.891Z,11.53
2018-05-24T21:35:32.324Z,11.40
2018-05-24T21:37:59.964Z,11.60
2018-05-24T21:40:27.363Z,11.47
2018-05-24T21:42:54.842Z,11.37
2018-05-24T21:45:22.372Z,11.60
2018-05-24T21:47:49.838Z,11.97
2018-05-24T21:50:17.400Z,11.80
2018-05-24T21:52:45.050Z,12.90
2018-05-24T21:55:12.598Z,12.53
2018-05-24T21:57:40.199Z,12.70
2018-05-24T22:00:07.882Z,12.23
2018-05-24T22:02:37.230Z,12.13
2018-05-24T22:05:04.695Z,12.27
2018-05-24T22:07:32.204Z,11.80
2018-05-24T22:09:59.738Z,11.63
2018-05-24T22:12:27.207Z,11.77
2018-05-24T22:14:54.715Z,12.27
2018-05-24T22:17:22.278Z,11.77
2018-05-24T22:19:49.937Z,11.40
2018-05-24T22:22:17.599Z,12.47
2018-05-24T22:24:45.061Z,11.80
2018-05-24T22:27:12.593Z,12.57
2018-05-24T22:29:40.183Z,12.60
2018-05-24T22:32:07.843Z,11.97
2018-05-24T22:34:36.818Z,12.23
2018-05-24T22:37:04.393Z,12.37
2018-05-24T22:39:32.045Z,11.80
2018-05-24T22:41:59.576Z,12.47
2018-05-24T22:44:27.032Z,11.80
2018-05-24T22:46:54.507Z,12.10
2018-05-24T22:49:22.187Z,12.40
2018-05-24T22:51:49.724Z,11.97
2018-05-24T22:54:17.407Z,13.20
2018-05-24T22:56:45.129Z,12.07
2018-05-24T22:59:12.584Z,11.83
2018-05-24T23:01:40.164Z,12.50
2018-05-24T23:04:07.865Z,12.50
2018-05-24T23:06:35.322Z,12.30
2018-05-24T23:09:02.801Z,11.70
2018-05-24T23:11:30.402Z,12.73
2018-05-24T23:13:58.066Z,11.90
2018-05-24T23:16:26.307Z,12.20
2018-05-24T23:18:53.818Z,11.90
2018-05-24T23:21:21.364Z,11.87
2018-05-24T23:23:48.805Z,12.13
2018-05-24T23:26:16.388Z,11.80
2018-05-24T23:28:44.034Z,12.10
2018-05-24T23:31:11.707Z,12.03
2018-05-24T23:33:39.240Z,12.67
2018-05-24T23:36:06.705Z,11.53
2018-05-24T23:38:34.503Z,12.13
2018-05-24T23:41:02.168Z,11.50
2018-05-24T23:43:29.635Z,12.27
2018-05-24T23:45:57.275Z,11.83
2018-05-24T23:48:24.945Z,12.00
2018-05-24T23:50:52.581Z,12.33
2018-05-24T23:53:20.114Z,11.50
2018-05-24T23:55:47.750Z,11.90
2018-05-24T23:58:15.362Z,11.60
